createdAt,value
2023-04-20T00:00:48.269Z,8.3
2023-04-20T00:02:03.577Z,8.9
2023-04-20T00:03:18.868Z,9.6
2023-04-20T00:04:35.189Z,8.8
2023-04-20T00:05:51.462Z,8.6
2023-04-20T00:07:07.776Z,8.3
2023-04-20T00:08:24.064Z,8.8
2023-04-20T00:09:40.347Z,8.3
2023-04-20T00:10:56.627Z,8.5
2023-04-20T00:12:12.947Z,9.6
2023-04-20T00:13:29.244Z,8.1
2023-04-20T00:14:45.527Z,8.9
2023-04-20T00:16:01.818Z,8.9
2023-04-20T00:17:18.129Z,9.4
2023-04-20T00:18:34.402Z,8.4
2023-04-20T00:19:49.708Z,9.4
2023-04-20T00:21:06.002Z,8.2
2023-04-20T00:22:22.316Z,8.1
2023-04-20T00:23:38.586Z,7.7
2023-04-20T00:24:54.880Z,8.7
2023-04-20T00:26:11.210Z,9
2023-04-20T00:27:27.493Z,8
2023-04-20T00:28:42.820Z,8.1
2023-04-20T00:29:58.121Z,10.3
2023-04-20T00:31:14.425Z,9.4
2023-04-20T00:32:29.732Z,8.5
2023-04-20T00:33:45.060Z,8.9
2023-04-20T00:35:01.313Z,8
2023-04-20T00:36:17.629Z,8.7
2023-04-20T00:37:33.914Z,8.2
2023-04-20T00:38:50.221Z,9
2023-04-20T00:40:06.523Z,9.4
2023-04-20T00:41:22.786Z,8.5
2023-04-20T00:42:39.072Z,8.4
2023-04-20T00:43:55.367Z,10.7
2023-04-20T00:45:11.668Z,9.6
2023-04-20T00:46:27.996Z,7.4
2023-04-20T00:47:44.254Z,9.7
2023-04-20T00:49:00.571Z,8.7
2023-04-20T00:50:15.869Z,8.5
2023-04-20T00:51:32.165Z,9.4
2023-04-20T00:52:48.443Z,8.6
2023-04-20T00:54:04.741Z,8.5
2023-04-20T00:55:21.058Z,8.9
2023-04-20T00:56:37.364Z,9.2
2023-04-20T00:57:53.627Z,8.6
2023-04-20T00:59:08.938Z,9.1
2023-04-20T01:00:24.287Z,8
2023-04-20T01:01:40.559Z,9
2023-04-20T01:02:55.884Z,9.3
2023-04-20T01:04:11.177Z,9
2023-04-20T01:05:27.504Z,8.8
2023-04-20T01:06:43.761Z,8.9
2023-04-20T01:08:00.079Z,9.4
2023-04-20T01:09:16.353Z,9.3
2023-04-20T01:10:32.676Z,9.2
2023-04-20T01:11:48.933Z,11.5
2023-04-20T01:13:05.226Z,9.8
2023-04-20T01:14:21.522Z,10
2023-04-20T01:15:37.846Z,9.6
2023-04-20T01:16:54.143Z,9.7
2023-04-20T01:18:10.401Z,9.5
2023-04-20T01:19:26.725Z,10.6
2023-04-20T01:20:42.992Z,8.8
2023-04-20T01:21:58.340Z,9.8
2023-04-20T01:23:14.597Z,9.6
2023-04-20T01:24:30.901Z,8.9
2023-04-20T01:25:47.196Z,8.6
2023-04-20T01:27:03.510Z,8.4
2023-04-20T01:28:19.782Z,9.8
2023-04-20T01:29:35.090Z,9.3
2023-04-20T01:30:50.428Z,9.9
2023-04-20T01:32:06.711Z,10.8
2023-04-20T01:33:22.047Z,9.8
2023-04-20T01:34:37.345Z,9.7
2023-04-20T01:35:53.625Z,9.5
2023-04-20T01:37:09.909Z,9.1
2023-04-20T01:38:26.203Z,9
2023-04-20T01:39:42.495Z,8.9
2023-04-20T01:40:58.821Z,9.9
2023-04-20T01:42:15.112Z,11.1
2023-04-20T01:43:31.383Z,11
2023-04-20T01:44:47.671Z,9.9
2023-04-20T01:46:04.000Z,11.1
2023-04-20T01:47:20.299Z,10.4
2023-04-20T01:48:36.566Z,9.5
2023-04-20T01:49:52.882Z,11.5
2023-04-20T01:51:08.188Z,10
2023-04-20T01:52:24.486Z,10.4
2023-04-20T01:53:40.777Z,12
2023-04-20T01:54:57.077Z,10.7
2023-04-20T01:56:13.382Z,11.2
2023-04-20T01:57:29.640Z,11.1
2023-04-20T01:58:45.962Z,12.1
2023-04-20T02:00:01.273Z,11.2
2023-04-20T02:01:16.556Z,11.3
2023-04-20T02:02:32.854Z,10.1
2023-04-20T02:03:49.179Z,11.1
2023-04-20T02:05:05.475Z,10.6
2023-04-20T02:06:21.769Z,11.6
2023-04-20T02:07:38.060Z,10.2
2023-04-20T02:08:54.329Z,10.5
2023-04-20T02:10:10.616Z,11.3
2023-04-20T02:11:26.905Z,10.2
2023-04-20T02:12:43.209Z,10
2023-04-20T02:13:59.496Z,10.6
2023-04-20T02:15:15.791Z,10.1
2023-04-20T02:16:32.100Z,9.8
2023-04-20T02:17:47.395Z,9.9
2023-04-20T02:19:03.704Z,11
2023-04-20T02:20:19.991Z,11.7
2023-04-20T02:21:36.276Z,10.9
2023-04-20T02:22:52.571Z,10.6
2023-04-20T02:24:08.874Z,10.1
2023-04-20T02:25:25.175Z,9.9
2023-04-20T02:26:40.483Z,10.3
2023-04-20T02:27:55.799Z,10
2023-04-20T02:29:11.119Z,10.1
2023-04-20T02:30:26.416Z,10.1
2023-04-20T02:31:42.704Z,9
2023-04-20T02:32:59.003Z,10.5
2023-04-20T02:34:15.298Z,9.7
2023-04-20T02:35:31.591Z,9.7
2023-04-20T02:36:47.898Z,10
2023-04-20T02:38:04.179Z,9.7
2023-04-20T02:39:20.479Z,8.4
2023-04-20T02:40:36.766Z,8.3
2023-04-20T02:41:53.062Z,9.3
2023-04-20T02:43:09.360Z,8.7
2023-04-20T02:44:25.652Z,9.6
2023-04-20T02:45:41.940Z,7.7
2023-04-20T02:46:57.260Z,8
2023-04-20T02:48:13.554Z,7.5
2023-04-20T02:49:29.847Z,7.7
2023-04-20T02:50:46.138Z,7.7
2023-04-20T02:52:02.444Z,7.6
2023-04-20T02:53:18.722Z,6.8
2023-04-20T02:54:35.031Z,7
2023-04-20T02:55:50.339Z,7.8
2023-04-20T02:57:05.645Z,6.8
2023-04-20T02:58:21.943Z,6.4
2023-04-20T02:59:38.247Z,6
2023-04-20T03:00:54.531Z,6.1
2023-04-20T03:02:10.823Z,6
2023-04-20T03:03:27.113Z,6
2023-04-20T03:04:43.410Z,5.7
2023-04-20T03:05:59.706Z,5.6
2023-04-20T03:07:16.002Z,6.8
2023-04-20T03:08:32.303Z,5.8
2023-04-20T03:09:48.587Z,5.9
2023-04-20T03:11:04.880Z,5.6
2023-04-20T03:12:21.175Z,5.1
2023-04-20T03:13:36.501Z,5.7
2023-04-20T03:14:52.792Z,5.4
2023-04-20T03:16:09.087Z,5.9
2023-04-20T03:17:25.372Z,6
2023-04-20T03:18:41.672Z,5.6
2023-04-20T03:19:57.958Z,5
2023-04-20T03:21:14.255Z,5.6
2023-04-20T03:22:29.580Z,5.4
2023-04-20T03:23:44.883Z,6.6
2023-04-20T03:25:01.182Z,5.8
2023-04-20T03:26:17.469Z,5.8
2023-04-20T03:27:33.770Z,5.5
2023-04-20T03:28:50.050Z,6.4
2023-04-20T03:30:06.347Z,6.4
2023-04-20T03:31:22.651Z,5.5
2023-04-20T03:32:38.949Z,6.4
2023-04-20T03:33:55.177Z,6.8
2023-04-20T03:35:11.474Z,6.3
2023-04-20T03:36:27.729Z,7.3
2023-04-20T03:37:43.979Z,7.8
2023-04-20T03:39:00.210Z,6.6
2023-04-20T03:40:15.478Z,6.4
2023-04-20T03:41:31.716Z,8.5
2023-04-20T03:42:47.962Z,6.9
2023-04-20T03:44:04.198Z,6.2
2023-04-20T03:45:20.442Z,6.3
2023-04-20T03:46:36.677Z,6.6
2023-04-20T03:47:52.928Z,6.1
2023-04-20T03:49:08.191Z,6.1
2023-04-20T03:50:23.439Z,6.3
2023-04-20T03:51:38.694Z,7.4
2023-04-20T03:52:53.952Z,6
2023-04-20T03:54:10.188Z,6.4
2023-04-20T03:55:26.441Z,6.8
2023-04-20T03:56:42.670Z,8
2023-04-20T03:57:58.915Z,5.7
2023-04-20T03:59:15.000Z,6.2
2023-04-20T04:00:31.394Z,6.5
2023-04-20T04:01:47.648Z,7.4
2023-04-20T04:03:03.877Z,6.1
2023-04-20T04:04:20.115Z,6.2
2023-04-20T04:05:36.353Z,7.1
2023-04-20T04:06:52.588Z,7.1
2023-04-20T04:08:08.833Z,7.3
2023-04-20T04:09:24.110Z,7.2
2023-04-20T04:10:40.332Z,6.4
2023-04-20T04:11:56.587Z,6.9
2023-04-20T04:13:12.822Z,7.3
2023-04-20T04:14:29.060Z,8.1
2023-04-20T04:15:45.292Z,8.5
2023-04-20T04:17:01.544Z,8.2
2023-04-20T04:18:16.804Z,7.8
2023-04-20T04:19:32.065Z,9.3
2023-04-20T04:20:47.314Z,8.6
2023-04-20T04:22:02.581Z,8.8
2023-04-20T04:23:17.849Z,8.2
2023-04-20T04:24:33.091Z,8.3
2023-04-20T04:25:49.341Z,8.4
2023-04-20T04:27:05.585Z,8.4
2023-04-20T04:28:21.806Z,9.4
2023-04-20T04:29:38.070Z,7.9
2023-04-20T04:30:54.289Z,8.8
2023-04-20T04:32:10.534Z,8.5
2023-04-20T04:33:26.783Z,8
2023-04-20T04:34:43.013Z,8.2
2023-04-20T04:35:59.256Z,9
2023-04-20T04:37:15.492Z,9.2
2023-04-20T04:38:31.728Z,8.8
2023-04-20T04:39:47.980Z,9.2
2023-04-20T04:41:03.236Z,9.5
2023-04-20T04:42:19.474Z,9.5
2023-04-20T04:43:35.722Z,10.2
2023-04-20T04:44:51.000Z,11.3
2023-04-20T04:46:08.202Z,10.7
2023-04-20T04:47:24.440Z,13
2023-04-20T04:48:40.674Z,12.7
2023-04-20T04:49:55.941Z,14.3
2023-04-20T04:51:11.184Z,12
2023-04-20T04:52:26.461Z,12.6
2023-04-20T04:53:41.703Z,11.5
2023-04-20T04:54:57.943Z,12.6
2023-04-20T04:56:14.193Z,13.7
2023-04-20T04:57:30.430Z,12.9
2023-04-20T04:58:46.680Z,13.3
2023-04-20T05:00:02.907Z,13.3
2023-04-20T05:01:19.144Z,12.6
2023-04-20T05:02:35.398Z,12.1
2023-04-20T05:03:51.625Z,12.6
2023-04-20T05:05:07.866Z,14.4
2023-04-20T05:06:24.122Z,13.2
2023-04-20T05:07:40.358Z,12.9
2023-04-20T05:08:56.606Z,13.3
2023-04-20T05:10:11.852Z,14.1
2023-04-20T05:11:28.086Z,14.9
2023-04-20T05:12:44.335Z,12.8
2023-04-20T05:14:00.575Z,14.6
2023-04-20T05:15:16.813Z,12.8
2023-04-20T05:16:33.063Z,13.1
2023-04-20T05:17:49.296Z,13.9
2023-04-20T05:19:04.559Z,14
2023-04-20T05:20:19.806Z,14.4
2023-04-20T05:21:35.070Z,13
2023-04-20T05:22:50.330Z,15
2023-04-20T05:24:06.569Z,14.5
2023-04-20T05:25:22.816Z,14.4
2023-04-20T05:26:39.039Z,14
2023-04-20T05:27:55.290Z,13.3
2023-04-20T05:29:11.522Z,13.6
2023-04-20T05:30:27.780Z,13.3
2023-04-20T05:31:44.008Z,14.6
2023-04-20T05:33:00.259Z,15.3
2023-04-20T05:34:16.499Z,14.6
2023-04-20T05:35:32.732Z,15.9
2023-04-20T05:36:48.980Z,15.3
2023-04-20T05:38:05.218Z,15.3
2023-04-20T05:40:36.705Z,14.8
2023-04-20T05:41:52.959Z,16.5
2023-04-20T05:43:09.187Z,14.9
2023-04-20T05:44:25.429Z,13.9
2023-04-20T05:45:41.671Z,14.8
2023-04-20T05:46:57.910Z,15.7
2023-04-20T05:48:14.000Z,14.7
2023-04-20T05:49:29.407Z,16.6
2023-04-20T05:50:45.769Z,15.5
2023-04-20T05:52:01.043Z,15.1
2023-04-20T05:53:16.282Z,15.2
2023-04-20T05:54:32.528Z,15.8
2023-04-20T05:55:48.783Z,15.5
2023-04-20T05:57:05.021Z,15.2
2023-04-20T05:58:21.253Z,15.7
2023-04-20T05:59:37.490Z,15.3
2023-04-20T06:00:53.731Z,15.5
2023-04-20T06:02:09.980Z,16
2023-04-20T06:03:26.213Z,15.3
2023-04-20T06:04:42.464Z,16.4
2023-04-20T06:05:58.694Z,16.7
2023-04-20T06:07:14.935Z,15.6
2023-04-20T06:08:31.185Z,15
2023-04-20T06:09:46.424Z,14.6
2023-04-20T06:11:02.679Z,14.8
2023-04-20T06:12:18.920Z,14.4
2023-04-20T06:13:35.142Z,14.8
2023-04-20T06:14:51.392Z,13.1
2023-04-20T06:16:07.640Z,14
2023-04-20T06:17:23.874Z,12.9
2023-04-20T06:18:39.140Z,16.4
2023-04-20T06:19:54.388Z,13.4
2023-04-20T06:21:09.645Z,13.4
2023-04-20T06:22:24.915Z,13.6
2023-04-20T06:23:41.157Z,13.5
2023-04-20T06:24:57.392Z,12.5
2023-04-20T06:26:13.627Z,13.2
2023-04-20T06:27:29.861Z,13.6
2023-04-20T06:28:46.110Z,12.6
2023-04-20T06:30:02.342Z,12.9
2023-04-20T06:31:18.589Z,14
2023-04-20T06:32:34.839Z,13.1
2023-04-20T06:33:51.070Z,14.4
2023-04-20T06:35:07.319Z,13.4
2023-04-20T06:36:23.544Z,18.9
2023-04-20T06:37:39.798Z,20.7
2023-04-20T06:38:55.050Z,19.6
2023-04-20T06:40:11.283Z,16.9
2023-04-20T06:41:27.523Z,16.8
2023-04-20T06:42:43.778Z,15.3
2023-04-20T06:44:00.011Z,18.2
2023-04-20T06:45:16.252Z,20.3
2023-04-20T06:46:32.480Z,22.7
2023-04-20T06:47:47.752Z,16.8
2023-04-20T06:49:03.008Z,16.7
2023-04-20T06:50:19.257Z,17.1
2023-04-20T06:51:35.495Z,15.4
2023-04-20T06:52:51.724Z,16.2
2023-04-20T06:54:07.978Z,15.1
2023-04-20T06:55:24.207Z,15.5
2023-04-20T06:56:40.457Z,16.3
2023-04-20T06:57:56.695Z,16.1
2023-04-20T06:59:12.935Z,16.3
2023-04-20T07:00:29.160Z,15.8
2023-04-20T07:01:45.413Z,15.9
2023-04-20T07:03:01.659Z,13
2023-04-20T07:04:17.898Z,13.3
2023-04-20T07:05:33.136Z,13.1
2023-04-20T07:06:49.394Z,15.2
2023-04-20T07:08:05.624Z,13.4
2023-04-20T07:09:21.871Z,14.7
2023-04-20T07:10:38.105Z,15.2
2023-04-20T07:11:54.352Z,13.2
2023-04-20T07:13:10.589Z,15
2023-04-20T07:14:25.850Z,13.9
2023-04-20T07:15:41.099Z,13.6
2023-04-20T07:16:56.363Z,15.1
2023-04-20T07:18:11.635Z,15.4
2023-04-20T07:19:27.868Z,14.3
2023-04-20T07:20:44.109Z,14.9
2023-04-20T07:22:00.341Z,15.6
2023-04-20T07:23:16.575Z,14.9
2023-04-20T07:24:32.826Z,15.6
2023-04-20T07:25:49.067Z,16.6
2023-04-20T07:27:05.296Z,15.4
2023-04-20T07:28:21.538Z,14.6
2023-04-20T07:29:37.790Z,15.1
2023-04-20T07:30:54.031Z,16
2023-04-20T07:32:10.268Z,16.2
2023-04-20T07:33:26.520Z,14.3
2023-04-20T07:34:41.769Z,14.3
2023-04-20T07:35:58.003Z,12.5
2023-04-20T07:37:14.237Z,12.9
2023-04-20T07:38:30.474Z,12.5
2023-04-20T07:39:46.716Z,11.1
2023-04-20T07:41:02.967Z,11.4
2023-04-20T07:42:19.221Z,11.9
2023-04-20T07:43:34.474Z,11.3
2023-04-20T07:44:49.725Z,11.4
2023-04-20T07:46:04.995Z,11.3
2023-04-20T07:47:20.255Z,12.1
2023-04-20T07:48:36.500Z,11.7
2023-04-20T07:49:52.724Z,12.1
2023-04-20T07:51:08.970Z,11.7
2023-04-20T07:52:25.217Z,11.5
2023-04-20T07:53:41.458Z,11.3
2023-04-20T07:54:57.688Z,11.4
2023-04-20T07:56:13.926Z,10.5
2023-04-20T07:57:30.162Z,10.3
2023-04-20T07:58:46.420Z,9.2
2023-04-20T08:00:02.657Z,9.3
2023-04-20T08:01:18.881Z,9.6
2023-04-20T08:02:35.124Z,8.7
2023-04-20T08:03:50.397Z,8.8
2023-04-20T08:05:06.631Z,10.3
2023-04-20T08:06:22.866Z,9.8
2023-04-20T08:07:39.107Z,11.6
2023-04-20T08:08:55.340Z,10.1
2023-04-20T08:10:11.594Z,10.2
2023-04-20T08:11:27.822Z,10.3
2023-04-20T08:12:43.084Z,11.9
2023-04-20T08:13:58.345Z,10
2023-04-20T08:15:14.576Z,11.5
2023-04-20T08:16:29.841Z,9.7
2023-04-20T08:17:45.103Z,10.6
2023-04-20T08:19:01.333Z,10.9
2023-04-20T08:20:17.577Z,10.9
2023-04-20T08:21:33.829Z,10.1
2023-04-20T08:22:50.053Z,11
2023-04-20T08:24:05.316Z,11
2023-04-20T08:25:21.557Z,10.6
2023-04-20T08:26:37.797Z,10.7
2023-04-20T08:27:54.051Z,10.7
2023-04-20T08:29:10.282Z,11.1
2023-04-20T08:30:26.523Z,11.1
2023-04-20T08:31:42.752Z,11.3
2023-04-20T08:32:58.993Z,11.1
2023-04-20T08:34:15.242Z,11.9
2023-04-20T08:35:31.481Z,10.9
2023-04-20T08:36:47.716Z,11.6
2023-04-20T08:38:03.963Z,11.7
2023-04-20T08:39:20.209Z,12
2023-04-20T08:40:36.555Z,11.6
2023-04-20T08:41:52.813Z,11.5
2023-04-20T08:43:08.057Z,12.8
2023-04-20T08:44:23.328Z,14
2023-04-20T08:45:39.564Z,14.7
2023-04-20T08:46:55.803Z,13.7
2023-04-20T08:48:12.033Z,14.8
2023-04-20T08:49:28.276Z,13.5
2023-04-20T08:50:44.512Z,13.1
2023-04-20T08:52:00.754Z,13.3
2023-04-20T08:53:16.997Z,13.1
2023-04-20T08:54:33.229Z,14.2
2023-04-20T08:55:49.486Z,13.5
2023-04-20T08:57:05.721Z,13.3
2023-04-20T08:58:21.950Z,13.1
2023-04-20T08:59:38.208Z,14.3
2023-04-20T09:00:53.464Z,13.5
2023-04-20T09:02:09.694Z,13.2
2023-04-20T09:03:25.933Z,13.8
2023-04-20T09:04:42.184Z,13.1
2023-04-20T09:05:58.419Z,13.4
2023-04-20T09:07:14.653Z,11.2
2023-04-20T09:08:30.888Z,12.1
2023-04-20T09:09:46.155Z,11.8
2023-04-20T09:11:01.401Z,12.7
2023-04-20T09:13:32.900Z,12.7
2023-04-20T09:14:48.181Z,12.6
2023-04-20T09:16:03.425Z,11.4
2023-04-20T09:17:18.683Z,11.6
2023-04-20T09:18:33.949Z,12.4
2023-04-20T09:19:50.194Z,11
2023-04-20T09:21:06.435Z,11.8
2023-04-20T09:22:22.672Z,13.3
2023-04-20T09:23:38.900Z,12.4
2023-04-20T09:24:55.145Z,12.2
2023-04-20T09:26:11.381Z,13.7
2023-04-20T09:27:27.632Z,12.7
2023-04-20T09:28:43.861Z,12.2
2023-04-20T09:30:00.109Z,12
2023-04-20T09:31:16.337Z,12
2023-04-20T09:32:32.572Z,12
2023-04-20T09:33:48.822Z,12.3
2023-04-20T09:35:04.071Z,11.6
2023-04-20T09:36:20.315Z,11.9
2023-04-20T09:37:36.547Z,12.1
2023-04-20T09:38:52.789Z,12.8
2023-04-20T09:40:09.033Z,11.1
2023-04-20T09:41:25.276Z,11.6
2023-04-20T09:42:41.519Z,12.8
2023-04-20T09:43:56.780Z,10.9
2023-04-20T09:45:12.024Z,11.4
2023-04-20T09:46:28.272Z,12
2023-04-20T09:47:44.508Z,10.7
2023-04-20T09:49:00.744Z,11.7
2023-04-20T09:50:16.987Z,10.7
2023-04-20T09:51:33.241Z,11.7
2023-04-20T09:52:49.484Z,11.5
2023-04-20T09:54:05.717Z,11.4
2023-04-20T09:55:21.945Z,9.9
2023-04-20T09:56:38.197Z,10.2
2023-04-20T09:57:54.436Z,9.7
2023-04-20T09:59:10.672Z,9.8
2023-04-20T10:00:26.903Z,12.1
2023-04-20T10:01:42.162Z,11.9
2023-04-20T10:02:58.400Z,13.9
2023-04-20T10:04:14.655Z,11.1
2023-04-20T10:05:30.882Z,11.6
2023-04-20T10:06:47.119Z,11.3
2023-04-20T10:08:03.367Z,10.7
2023-04-20T10:09:19.596Z,11.5
2023-04-20T10:10:34.859Z,11.2
2023-04-20T10:11:50.123Z,12.1
2023-04-20T10:13:06.355Z,10.8
2023-04-20T10:14:22.604Z,12.5
2023-04-20T10:15:38.848Z,11.5
2023-04-20T10:16:55.077Z,10.7
2023-04-20T10:18:11.316Z,12.3
2023-04-20T10:19:27.567Z,10.8
2023-04-20T10:20:43.795Z,10.7
2023-04-20T10:22:00.049Z,11.3
2023-04-20T10:23:16.279Z,11.2
2023-04-20T10:24:32.513Z,10.3
2023-04-20T10:25:48.767Z,10.8
2023-04-20T10:27:04.997Z,9.7
2023-04-20T10:28:20.266Z,10.5
2023-04-20T10:29:36.496Z,11
2023-04-20T10:30:52.732Z,10.8
2023-04-20T10:32:08.971Z,11.4
2023-04-20T10:33:25.216Z,10.7
2023-04-20T10:34:41.447Z,11.5
2023-04-20T10:35:57.705Z,10.6
2023-04-20T10:37:12.964Z,12.1
2023-04-20T10:38:28.205Z,10.9
2023-04-20T10:39:43.482Z,11.4
2023-04-20T10:40:58.721Z,11.4
2023-04-20T10:42:14.965Z,11.5
2023-04-20T10:43:31.212Z,10.6
2023-04-20T10:44:47.462Z,10
2023-04-20T10:46:03.695Z,10.3
2023-04-20T10:47:19.922Z,12.6
2023-04-20T10:48:36.179Z,11.2
2023-04-20T10:49:52.411Z,10.6
2023-04-20T10:51:08.658Z,11.8
2023-04-20T10:52:24.898Z,11.5
2023-04-20T10:53:41.124Z,11.3
2023-04-20T10:54:57.359Z,11
2023-04-20T10:56:13.603Z,12
2023-04-20T10:57:28.870Z,12
2023-04-20T10:58:45.115Z,10.5
2023-04-20T11:00:01.346Z,11.4
2023-04-20T11:01:17.580Z,11.2
2023-04-20T11:02:33.823Z,11
2023-04-20T11:03:50.074Z,11.8
2023-04-20T11:05:06.294Z,11.1
2023-04-20T11:06:21.558Z,12.5
2023-04-20T11:07:36.829Z,11.3
2023-04-20T11:08:52.074Z,12.7
2023-04-20T11:10:07.342Z,11.8
2023-04-20T11:11:23.579Z,12.1
2023-04-20T11:12:39.828Z,12.4
2023-04-20T11:13:56.058Z,11.7
2023-04-20T11:15:12.306Z,11.1
2023-04-20T11:16:28.545Z,12.5
2023-04-20T11:17:44.774Z,10.9
2023-04-20T11:19:01.024Z,13.3
2023-04-20T11:20:17.263Z,11.5
2023-04-20T11:21:33.497Z,12.8
2023-04-20T11:22:49.739Z,10.9
2023-04-20T11:24:05.977Z,9.6
2023-04-20T11:25:22.220Z,10.9
2023-04-20T11:26:37.462Z,10.5
2023-04-20T11:27:53.711Z,11.1
2023-04-20T11:29:09.950Z,12.3
2023-04-20T11:30:26.187Z,10.9
2023-04-20T11:31:42.438Z,10.9
2023-04-20T11:32:58.666Z,11.1
2023-04-20T11:34:14.905Z,10.4
2023-04-20T11:35:30.178Z,10.8
2023-04-20T11:36:45.438Z,11.4
2023-04-20T11:38:00.690Z,11.4
2023-04-20T11:39:15.953Z,14.4
2023-04-20T11:40:31.203Z,12.2
2023-04-20T11:41:46.458Z,12.5
2023-04-20T11:43:02.716Z,11.8
2023-04-20T11:44:18.945Z,11.6
2023-04-20T11:45:35.183Z,12.2
2023-04-20T11:46:51.433Z,12.3
2023-04-20T11:48:07.661Z,12.2
2023-04-20T11:49:23.907Z,12.5
2023-04-20T11:50:40.136Z,13.7
2023-04-20T11:51:56.382Z,12.3
2023-04-20T11:53:12.622Z,14
2023-04-20T11:54:28.865Z,12.5
2023-04-20T11:55:45.105Z,13.8
2023-04-20T11:57:01.348Z,11.8
2023-04-20T11:58:16.606Z,13
2023-04-20T11:59:32.841Z,14.2
2023-04-20T12:00:49.088Z,14.5
2023-04-20T12:02:05.323Z,13.1
2023-04-20T12:03:21.556Z,14.5
2023-04-20T12:04:37.808Z,13.8
2023-04-20T12:05:54.041Z,14.5
2023-04-20T12:07:09.307Z,13.9
2023-04-20T12:08:24.555Z,14.2
2023-04-20T12:09:39.819Z,14.1
2023-04-20T12:10:55.083Z,14.7
2023-04-20T12:12:11.328Z,15.2
2023-04-20T12:13:27.567Z,15.3
2023-04-20T12:14:43.804Z,14.5
2023-04-20T12:16:00.044Z,15
2023-04-20T12:17:16.289Z,15.1
2023-04-20T12:18:32.509Z,16.4
2023-04-20T12:19:48.754Z,17.2
2023-04-20T12:21:05.007Z,15.4
2023-04-20T12:22:21.232Z,17.2
2023-04-20T12:23:37.491Z,18.2
2023-04-20T12:24:53.710Z,16.5
2023-04-20T12:26:09.955Z,17.5
2023-04-20T12:27:25.209Z,17
2023-04-20T12:28:41.449Z,18.3
2023-04-20T12:29:57.687Z,17.7
2023-04-20T12:31:13.943Z,17.7
2023-04-20T12:32:30.167Z,16.5
2023-04-20T12:33:46.415Z,17
2023-04-20T12:35:02.647Z,17.3
2023-04-20T12:36:17.916Z,18.1
2023-04-20T12:37:33.183Z,17
2023-04-20T12:38:48.443Z,17.8
2023-04-20T12:40:03.707Z,18
2023-04-20T12:41:19.951Z,19.8
2023-04-20T12:42:36.174Z,17.3
2023-04-20T12:43:52.423Z,17
2023-04-20T12:45:08.654Z,16.6
2023-04-20T12:46:24.894Z,17
2023-04-20T12:47:41.136Z,16.5
2023-04-20T12:48:57.389Z,17.1
2023-04-20T12:50:13.622Z,18
2023-04-20T12:51:29.870Z,18.4
2023-04-20T12:52:46.108Z,18.3
2023-04-20T12:54:02.340Z,18.9
2023-04-20T12:55:18.576Z,17
2023-04-20T12:56:33.839Z,15.6
2023-04-20T12:57:50.070Z,16.3
2023-04-20T12:59:06.318Z,16.4
2023-04-20T13:00:22.558Z,16.3
2023-04-20T13:01:38.804Z,17
2023-04-20T13:02:55.043Z,16.9
2023-04-20T13:04:11.274Z,17.1
2023-04-20T13:05:26.546Z,16.6
2023-04-20T13:06:41.786Z,17
2023-04-20T13:07:58.038Z,18
2023-04-20T13:09:14.266Z,17.3
2023-04-20T13:10:30.524Z,16.6
2023-04-20T13:11:46.758Z,19.6
2023-04-20T13:13:02.989Z,17.4
2023-04-20T13:14:19.240Z,19.5
2023-04-20T13:15:35.482Z,17.5
2023-04-20T13:16:51.719Z,16.1
2023-04-20T13:18:07.000Z,19.1
2023-04-20T13:19:24.198Z,17.9
2023-04-20T13:20:40.432Z,20
2023-04-20T13:21:56.674Z,17
2023-04-20T13:23:11.925Z,18.7
2023-04-20T13:24:28.173Z,17.8
2023-04-20T13:25:44.428Z,18.1
2023-04-20T13:27:00.654Z,18.6
2023-04-20T13:28:16.894Z,18.9
2023-04-20T13:29:33.149Z,17.2
2023-04-20T13:30:49.366Z,18.9
2023-04-20T13:32:04.633Z,18.4
2023-04-20T13:33:19.880Z,18.3
2023-04-20T13:34:35.151Z,21
2023-04-20T13:35:50.405Z,18.7
2023-04-20T13:37:05.676Z,18.5
2023-04-20T13:38:20.922Z,19.3
2023-04-20T13:39:37.168Z,21.8
2023-04-20T13:40:53.394Z,19.1
2023-04-20T13:42:09.650Z,19.3
2023-04-20T13:43:25.873Z,20
2023-04-20T13:44:42.128Z,19.1
2023-04-20T13:45:58.360Z,19.7
2023-04-20T13:47:14.604Z,19.5
2023-04-20T13:48:30.857Z,20
2023-04-20T13:49:47.080Z,20.8
2023-04-20T13:51:03.330Z,20.7
2023-04-20T13:52:19.561Z,20.9
2023-04-20T13:53:35.801Z,20.5
2023-04-20T13:54:51.055Z,20.4
2023-04-20T13:56:07.306Z,21.1
2023-04-20T13:57:23.541Z,20.4
2023-04-20T13:58:39.782Z,22
2023-04-20T13:59:56.021Z,22.1
2023-04-20T14:01:12.269Z,22.8
2023-04-20T14:02:28.495Z,22.4
2023-04-20T14:03:43.763Z,23.1
2023-04-20T14:04:59.016Z,23.9
2023-04-20T14:06:15.263Z,21.2
2023-04-20T14:07:30.519Z,23.5
2023-04-20T14:08:45.772Z,23.9
2023-04-20T14:10:02.014Z,21.2
2023-04-20T14:11:18.256Z,23
2023-04-20T14:12:34.497Z,23.4
2023-04-20T14:13:50.736Z,25.4
2023-04-20T14:15:06.978Z,23.4
2023-04-20T14:16:23.206Z,23
2023-04-20T14:17:39.465Z,24.7
2023-04-20T14:18:55.709Z,24.8
2023-04-20T14:20:11.936Z,24.8
2023-04-20T14:21:28.182Z,23.7
2023-04-20T14:22:44.418Z,25.7
2023-04-20T14:24:00.646Z,25
2023-04-20T14:25:15.914Z,24.6
2023-04-20T14:26:32.151Z,24.9
2023-04-20T14:27:48.392Z,25
2023-04-20T14:29:04.627Z,26
2023-04-20T14:30:20.867Z,26
2023-04-20T14:31:37.100Z,25.8
2023-04-20T14:32:53.343Z,22.6
2023-04-20T14:34:08.625Z,24.3
2023-04-20T14:35:23.877Z,26.4
2023-04-20T14:36:40.120Z,25.9
2023-04-20T14:37:56.343Z,26.4
2023-04-20T14:39:12.585Z,24.3
2023-04-20T14:40:28.835Z,26.5
2023-04-20T14:41:45.062Z,25.5
2023-04-20T14:43:01.317Z,23.3
2023-04-20T14:44:17.550Z,26
2023-04-20T14:45:33.788Z,22.6
2023-04-20T14:46:50.019Z,24.5
2023-04-20T14:48:06.278Z,23.3
2023-04-20T14:49:22.501Z,22.1
2023-04-20T14:50:38.741Z,24.2
2023-04-20T14:51:54.008Z,24.2
2023-04-20T14:53:10.252Z,23.4
2023-04-20T14:54:26.491Z,24
2023-04-20T14:55:42.726Z,23
2023-04-20T14:56:58.958Z,24
2023-04-20T14:58:15.209Z,24.5
2023-04-20T14:59:31.443Z,25.3
2023-04-20T15:00:46.718Z,23.3
2023-04-20T15:02:01.961Z,22.8
2023-04-20T15:03:17.231Z,22.6
2023-04-20T15:04:32.490Z,21.7
2023-04-20T15:05:47.759Z,24
2023-04-20T15:07:03.003Z,22.5
2023-04-20T15:08:19.240Z,21.5
2023-04-20T15:09:35.482Z,21.7
2023-04-20T15:10:51.728Z,22.5
2023-04-20T15:12:07.964Z,22.9
2023-04-20T15:13:24.193Z,22.4
2023-04-20T15:14:40.439Z,22.4
2023-04-20T15:15:56.692Z,23.7
2023-04-20T15:17:12.923Z,23.6
2023-04-20T15:18:29.151Z,22
2023-04-20T15:19:45.388Z,22.6
2023-04-20T15:21:01.644Z,22.8
2023-04-20T15:22:17.871Z,22.2
2023-04-20T15:23:33.139Z,20.9
2023-04-20T15:24:49.370Z,22.7
2023-04-20T15:26:05.608Z,22.3
2023-04-20T15:27:21.859Z,21.1
2023-04-20T15:28:38.090Z,23.4
2023-04-20T15:29:54.338Z,23.1
2023-04-20T15:31:10.568Z,23.2
2023-04-20T15:32:25.832Z,25.7
2023-04-20T15:33:41.096Z,21.7
2023-04-20T15:34:57.322Z,21.2
2023-04-20T15:36:13.575Z,23.5
2023-04-20T15:37:28.839Z,22.1
2023-04-20T15:38:44.081Z,23.9
2023-04-20T15:40:00.334Z,20.7
2023-04-20T15:41:16.576Z,21.9
2023-04-20T15:42:32.801Z,21.7
2023-04-20T15:43:49.056Z,21.7
2023-04-20T15:45:05.285Z,21.9
2023-04-20T15:46:21.529Z,21
2023-04-20T15:48:54.004Z,20.4
2023-04-20T15:50:10.256Z,21.7
2023-04-20T15:51:26.508Z,22.5
2023-04-20T15:52:42.732Z,23.5
2023-04-20T15:53:58.960Z,20.3
2023-04-20T15:55:14.228Z,22.7
2023-04-20T15:56:30.474Z,22.1
2023-04-20T15:57:46.707Z,24.5
2023-04-20T15:59:02.958Z,22.5
2023-04-20T16:00:19.194Z,21.9
2023-04-20T16:01:35.417Z,23.3
2023-04-20T16:02:51.669Z,23.4
2023-04-20T16:04:07.908Z,21.9
2023-04-20T16:05:23.181Z,23.4
2023-04-20T16:06:38.423Z,24.1
2023-04-20T16:07:54.664Z,24.9
2023-04-20T16:09:10.892Z,22.9
2023-04-20T16:10:27.137Z,23.5
2023-04-20T16:11:43.385Z,23.6
2023-04-20T16:12:59.610Z,22.5
2023-04-20T16:14:15.852Z,25.8
2023-04-20T16:15:32.105Z,25.9
2023-04-20T16:16:48.343Z,26.4
2023-04-20T16:18:04.581Z,23.1
2023-04-20T16:19:20.822Z,23.1
2023-04-20T16:20:37.069Z,26.1
2023-04-20T16:21:53.297Z,25.7
2023-04-20T16:23:08.552Z,23.1
2023-04-20T16:24:24.788Z,25.2
2023-04-20T16:25:41.044Z,22.8
2023-04-20T16:26:57.268Z,22.5
2023-04-20T16:28:13.523Z,25.1
2023-04-20T16:29:29.766Z,25.6
2023-04-20T16:30:45.996Z,24.1
2023-04-20T16:32:01.262Z,24.4
2023-04-20T16:33:16.505Z,22.9
2023-04-20T16:34:31.764Z,22.5
2023-04-20T16:35:47.037Z,24.4
2023-04-20T16:37:03.265Z,24.7
2023-04-20T16:38:19.511Z,25.1
2023-04-20T16:39:35.752Z,23.4
2023-04-20T16:40:51.996Z,26
2023-04-20T16:42:08.225Z,25.1
2023-04-20T16:43:24.462Z,25.5
2023-04-20T16:44:40.704Z,24.5
2023-04-20T16:45:56.957Z,24.4
2023-04-20T16:47:13.195Z,23.5
2023-04-20T16:48:29.419Z,25.1
2023-04-20T16:49:45.667Z,26
2023-04-20T16:51:01.916Z,27.9
2023-04-20T16:52:17.170Z,27.5
2023-04-20T16:53:32.427Z,26.2
2023-04-20T16:54:48.666Z,27
2023-04-20T16:56:04.909Z,26.5
2023-04-20T16:57:21.151Z,27.3
2023-04-20T16:58:37.378Z,26.8
2023-04-20T16:59:53.635Z,24.9
2023-04-20T17:01:08.896Z,26.2
2023-04-20T17:02:24.159Z,25.3
2023-04-20T17:03:39.409Z,26.1
2023-04-20T17:04:54.650Z,24.6
2023-04-20T17:06:10.905Z,26.6
2023-04-20T17:07:27.155Z,26.4
2023-04-20T17:08:43.378Z,26.2
2023-04-20T17:09:59.645Z,25
2023-04-20T17:11:15.872Z,24.4
2023-04-20T17:12:32.103Z,25.5